Time;durP1;ratioP1;P1;durP2;ratioP2;P2;SDS_P1;SDS_P2;PMS_P1;PMS_P2;Temp;Humidity;BMP_temperature;BMP_pressure;BME280_temperature;BME280_humidity;BME280_pressure;Samples;Min_cycle;Max_cycle;Signal;HPM_P1;HPM_P2
2023/06/22 00:03:57;;;;;;;17.40;11.63;;;17.30;99.90;;;;;;4880599;29;20512;-96
2023/06/22 00:06:59;;;;;;;8.68;6.07;;;17.30;99.90;;;;;;4840523;29;20053;-96
2023/06/22 00:09:37;;;;;;;6.93;5.40;;;17.10;99.90;;;;;;4848457;29;20057;-96
2023/06/22 00:15:46;;;;;;;8.48;5.18;;;16.90;99.90;;;;;;4843956;29;20061;-96
2023/06/22 00:18:54;;;;;;;19.40;12.88;;;16.80;99.90;;;;;;4855373;29;20096;-96
2023/06/22 00:22:10;;;;;;;11.40;9.10;;;16.80;99.90;;;;;;4804981;29;20058;-96
2023/06/22 00:24:38;;;;;;;;;;;16.80;99.90;;;;;;4803614;29;20529;-96
2023/06/22 00:27:48;;;;;;;18.58;12.85;;;16.80;99.90;;;;;;4848720;29;19928;-96
2023/06/22 00:30:45;;;;;;;21.17;15.10;;;16.70;99.90;;;;;;4827634;29;20053;-96
2023/06/22 00:34:09;;;;;;;19.15;15.00;;;16.80;99.90;;;;;;4876375;29;20064;-96
2023/06/22 00:37:25;;;;;;;14.35;11.90;;;16.80;99.90;;;;;;4917088;29;20531;-96
2023/06/22 00:40:21;;;;;;;17.08;12.77;;;16.80;99.90;;;;;;4872236;29;20057;-96
2023/06/22 00:43:08;;;;;;;17.05;12.13;;;16.60;99.90;;;;;;4867836;29;20048;-96
2023/06/22 00:49:07;;;;;;;20.92;17.02;;;16.40;99.90;;;;;;4812670;29;20613;-96
2023/06/22 00:55:47;;;;;;;18.55;14.15;;;16.10;99.90;;;;;;4778415;29;20043;-96
2023/06/22 00:59:00;;;;;;;18.98;16.60;;;16.60;99.90;;;;;;4767521;29;20118;-96
2023/06/22 01:02:12;;;;;;;13.57;10.50;;;16.60;99.90;;;;;;4779336;29;20126;-96
2023/06/22 01:05:00;;;;;;;;;;;;;;;;;;;;;
2023/06/22 01:08:26;;;;;;;9.27;5.97;;;16.40;99.90;;;;;;4786641;29;20054;-96
2023/06/22 01:11:38;;;;;;;13.85;11.55;;;16.30;99.90;;;;;;4777923;30;20059;-96
2023/06/22 01:14:47;;;;;;;23.33;17.25;;;16.40;99.90;;;;;;4757686;30;20059;-96
2023/06/22 01:21:08;;;;;;;19.70;15.68;;;16.30;99.90;;;;;;4790855;29;20145;-96
2023/06/22 01:23:43;;;;;;;;;;;16.20;99.90;;;;;;4791738;29;20058;-96
2023/06/22 01:26:51;;;;;;;14.32;11.75;;;16.20;99.90;;;;;;4794730;29;19948;-96
2023/06/22 01:30:18;;;;;;;51.13;17.67;;;16.20;99.90;;;;;;4763527;30;20055;-96
2023/06/22 01:33:55;;;;;;;50.00;19.02;;;16.20;99.90;;;;;;4769069;30;20554;-96
2023/06/22 01:39:32;;;;;;;102.15;21.35;;;16.10;99.90;;;;;;4835275;29;20068;-96
2023/06/22 01:43:00;;;;;;;61.25;20.60;;;16.10;99.90;;;;;;4827677;29;20054;-96
2023/06/22 01:45:53;;;;;;;93.95;22.55;;;16.10;99.90;;;;;;4847499;29;20053;-96
2023/06/22 01:52:39;;;;;;;25.25;18.23;;;15.90;99.90;;;;;;4792368;29;20070;-96
2023/06/22 01:55:38;;;;;;;;;;;16.00;99.90;;;;;;4800349;29;20073;-96
2023/06/22 01:58:29;;;;;;;28.80;16.98;;;16.00;99.90;;;;;;4823573;29;19928;-96
2023/06/22 02:01:43;;;;;;;19.92;17.52;;;16.00;99.90;;;;;;4836671;29;20120;-96
2023/06/22 02:05:00;;;;;;;82.13;14.85;;;16.10;99.90;;;;;;4779227;29;20091;-96
2023/06/22 02:08:24;;;;;;;23.40;19.67;;;16.00;99.90;;;;;;4866149;29;20052;-96
2023/06/22 02:11:25;;;;;;;17.98;15.95;;;16.00;99.90;;;;;;4880599;29;20057;-96
2023/06/22 02:14:28;;;;;;;23.80;19.27;;;16.00;99.90;;;;;;4872320;29;20067;-96
2023/06/22 02:24:03;;;;;;;26.05;21.33;;;15.90;99.90;;;;;;4842916;29;20041;-96
2023/06/22 02:26:46;;;;;;;26.45;21.42;;;15.90;99.90;;;;;;4810635;29;20049;-96
2023/06/22 02:29:52;;;;;;;31.85;23.98;;;16.00;99.90;;;;;;4798665;29;20496;-96
2023/06/22 02:32:58;;;;;;;25.90;20.92;;;15.90;99.90;;;;;;4762588;29;20055;-96
2023/06/22 02:36:13;;;;;;;24.08;21.23;;;16.00;99.90;;;;;;4802321;29;20519;-96
2023/06/22 02:43:08;;;;;;;25.10;22.40;;;16.00;99.90;;;;;;4782704;29;20525;-96
2023/06/22 02:49:39;;;;;;;;;;;;;;;;;;;;;
2023/06/22 03:02:00;;;;;;;115.53;18.58;;;15.90;99.90;;;;;;4776618;29;20145;-96
2023/06/22 03:05:20;;;;;;;15.35;13.77;;;15.90;99.90;;;;;;4835645;29;20125;-96
2023/06/22 03:08:20;;;;;;;19.08;17.08;;;15.80;99.90;;;;;;4832125;29;20069;-96
2023/06/22 03:15:07;;;;;;;;;;;;;;;;;;;;;
2023/06/22 03:17:51;;;;;;;20.35;18.17;;;15.70;99.90;;;;;;4863683;29;20061;-96
2023/06/22 03:20:55;;;;;;;18.10;16.20;;;15.70;99.90;;;;;;4823430;29;20104;-96
2023/06/22 03:24:08;;;;;;;30.13;24.02;;;15.90;99.90;;;;;;4796229;29;20049;-96
2023/06/22 03:30:27;;;;;;;28.40;23.00;;;15.80;99.90;;;;;;4836540;29;20053;-96
2023/06/22 03:33:24;;;;;;;26.95;21.65;;;15.80;99.90;;;;;;4865111;29;20092;-96
2023/06/22 03:43:05;;;;;;;28.45;22.23;;;15.80;99.90;;;;;;4811107;29;20058;-96
2023/06/22 03:46:21;;;;;;;27.63;22.90;;;15.90;99.90;;;;;;4811269;29;20103;-96
2023/06/22 03:49:21;;;;;;;29.13;23.13;;;15.90;99.90;;;;;;4833833;29;20053;-96
2023/06/22 03:52:25;;;;;;;30.20;24.48;;;15.90;99.90;;;;;;4868026;29;20048;-96
2023/06/22 03:58:44;;;;;;;41.63;28.67;;;16.00;99.90;;;;;;4884602;29;20064;-96
2023/06/22 04:01:19;;;;;;;31.85;25.17;;;16.00;99.90;;;;;;4814750;29;20570;-97
2023/06/22 04:04:35;;;;;;;31.38;25.00;;;16.10;99.90;;;;;;4884178;29;20072;-96
2023/06/22 04:11:37;;;;;;;37.65;28.13;;;16.40;99.90;;;;;;4883483;29;20052;-96
2023/06/22 04:25:13;;;;;;;48.25;32.47;;;16.10;99.90;;;;;;4856640;29;20044;-96
2023/06/22 04:27:22;;;;;;;42.08;29.98;;;16.40;99.90;;;;;;4893773;29;20425;-96
2023/06/22 04:33:56;;;;;;;41.08;29.65;;;16.40;99.90;;;;;;4855000;29;20492;-96
2023/06/22 04:37:09;;;;;;;37.63;29.50;;;16.50;99.90;;;;;;4872385;29;20049;-96
2023/06/22 04:40:29;;;;;;;47.38;32.83;;;16.60;99.90;;;;;;4888937;29;20090;-96
2023/06/22 04:43:21;;;;;;;45.00;32.38;;;16.70;99.90;;;;;;4854128;29;20135;-96
2023/06/22 04:46:33;;;;;;;46.58;31.20;;;16.70;99.90;;;;;;4882929;29;20048;-96
2023/06/22 04:49:33;;;;;;;49.58;34.90;;;16.80;99.90;;;;;;4876389;29;20131;-96
2023/06/22 04:52:30;;;;;;;48.22;34.72;;;16.90;99.90;;;;;;4891823;29;20056;-96
2023/06/22 04:55:27;;;;;;;44.40;32.95;;;17.00;99.90;;;;;;4883324;29;20111;-96
2023/06/22 05:01:41;;;;;;;43.13;32.75;;;17.20;99.90;;;;;;4817591;29;20057;-96
2023/06/22 05:04:12;;;;;;;41.13;32.08;;;17.30;99.90;;;;;;4868180;29;20059;-96
2023/06/22 05:06:53;;;;;;;48.05;34.85;;;17.50;99.90;;;;;;4870461;29;21005;-96
2023/06/22 05:09:38;;;;;;;47.72;33.95;;;17.60;99.90;;;;;;4878641;29;20049;-96
2023/06/22 05:12:20;;;;;;;42.90;34.17;;;17.70;99.90;;;;;;4876740;29;20477;-96
2023/06/22 05:15:19;;;;;;;42.83;31.90;;;17.90;99.90;;;;;;4884878;29;20658;-96
2023/06/22 05:21:28;;;;;;;42.47;32.30;;;18.20;99.90;;;;;;4886971;29;20490;-96
2023/06/22 05:24:30;;;;;;;;;;;;;;;;;;;;;
2023/06/22 05:28:00;;;;;;;39.25;34.08;;;18.40;99.90;;;;;;4892137;29;20512;-96
2023/06/22 05:30:25;;;;;;;43.63;32.22;;;18.50;99.90;;;;;;4879838;29;20056;-96
2023/06/22 05:33:33;;;;;;;37.13;30.98;;;18.50;99.90;;;;;;4909435;29;20063;-96
2023/06/22 05:36:29;;;;;;;38.58;28.52;;;18.70;99.90;;;;;;4897253;29;20052;-96
2023/06/22 05:43:25;;;;;;;36.60;24.95;;;18.80;99.90;;;;;;4842067;29;20087;-96
2023/06/22 05:45:58;;;;;;;32.92;27.33;;;19.00;99.90;;;;;;4873348;29;20049;-96
2023/06/22 05:49:32;;;;;;;;;;;;;;;;;;;;;
2023/06/22 05:52:32;;;;;;;29.63;25.83;;;19.30;99.90;;;;;;4890331;29;20048;-96
2023/06/22 05:58:46;;;;;;;27.20;22.92;;;19.40;99.90;;;;;;4874242;29;19934;-96
2023/06/22 06:02:00;;;;;;;36.35;25.83;;;19.50;99.90;;;;;;4874706;29;20052;-96
2023/06/22 06:05:49;;;;;;;30.88;23.88;;;19.50;99.90;;;;;;4880326;29;20067;-96
2023/06/22 06:08:23;;;;;;;30.60;23.23;;;19.60;99.90;;;;;;4883094;29;20250;-96
2023/06/22 06:11:04;;;;;;;29.33;23.80;;;19.70;99.90;;;;;;4864768;29;20146;-96
2023/06/22 06:13:57;;;;;;;30.17;23.30;;;19.80;99.90;;;;;;4864719;29;20044;-96
2023/06/22 06:17:03;;;;;;;27.60;22.25;;;19.30;99.90;;;;;;4883961;29;20148;-96
2023/06/22 06:27:32;;;;;;;27.63;22.58;;;20.30;99.90;;;;;;4861930;29;20477;-96
2023/06/22 06:34:06;;;;;;;21.92;18.00;;;20.60;99.90;;;;;;4854796;29;20514;-96
2023/06/22 06:36:56;;;;;;;21.58;18.00;;;20.60;99.90;;;;;;4868657;29;20043;-96
2023/06/22 06:39:42;;;;;;;23.17;18.50;;;20.80;99.90;;;;;;4867139;29;20058;-96
2023/06/22 06:43:04;;;;;;;22.35;15.18;;;20.90;99.90;;;;;;4873327;29;20053;-96
2023/06/22 06:45:57;;;;;;;18.10;14.98;;;21.10;99.90;;;;;;4879652;29;20509;-96
2023/06/22 06:48:47;;;;;;;17.55;13.98;;;21.30;99.90;;;;;;4878763;29;20211;-96
2023/06/22 06:51:16;;;;;;;19.38;14.23;;;21.30;99.90;;;;;;4897421;23;20572;-96
2023/06/22 06:54:10;;;;;;;17.63;14.93;;;21.10;99.90;;;;;;4857089;29;20045;-93
2023/06/22 06:56:36;;;;;;;21.50;13.45;;;21.50;99.90;;;;;;4846229;29;20502;-93
2023/06/22 06:59:02;;;;;;;19.30;14.70;;;21.40;99.90;;;;;;4847971;29;20052;-92
2023/06/22 07:01:33;;;;;;;19.35;15.40;;;21.40;99.90;;;;;;4854529;29;20056;-94
2023/06/22 07:04:01;;;;;;;18.58;14.95;;;21.50;99.90;;;;;;4901272;23;20045;-95
2023/06/22 07:06:29;;;;;;;17.95;13.82;;;21.50;99.90;;;;;;4865620;29;20060;-95
2023/06/22 07:08:55;;;;;;;20.60;15.20;;;21.50;99.90;;;;;;4861890;29;20481;-95
2023/06/22 07:11:21;;;;;;;19.40;14.80;;;21.60;99.90;;;;;;4861799;29;20111;-96
2023/06/22 07:13:47;;;;;;;20.50;13.75;;;21.70;99.90;;;;;;4869477;29;20525;-96
2023/06/22 07:19:30;;;;;;;18.92;11.00;;;22.10;99.90;;;;;;4853428;29;20076;-96
2023/06/22 07:25:28;;;;;;;16.33;10.50;;;22.40;99.90;;;;;;4838917;29;20050;-96
2023/06/22 07:28:53;;;;;;;14.43;10.18;;;22.40;99.90;;;;;;4877552;29;20061;-96
2023/06/22 07:36:26;;;;;;;10.85;8.30;;;22.50;99.90;;;;;;4871725;29;20060;-96
2023/06/22 07:39:14;;;;;;;14.50;9.15;;;22.60;99.90;;;;;;4867080;29;20052;-95
2023/06/22 07:42:02;;;;;;;10.07;7.65;;;22.70;99.90;;;;;;4844993;29;20155;-96
2023/06/22 07:44:48;;;;;;;8.73;5.43;;;22.70;99.90;;;;;;4868782;29;20048;-94
2023/06/22 07:47:47;;;;;;;11.55;6.38;;;22.70;99.90;;;;;;4893275;29;20044;-96
2023/06/22 07:50:28;;;;;;;7.93;4.72;;;22.70;99.90;;;;;;4869640;29;20406;-94
2023/06/22 07:53:35;;;;;;;7.97;4.38;;;22.70;99.90;;;;;;4861345;29;20134;-95
2023/06/22 07:57:19;;;;;;;8.45;4.90;;;22.80;99.90;;;;;;4875491;29;20498;-96
2023/06/22 08:00:04;;;;;;;7.80;4.22;;;22.90;99.90;;;;;;4863758;29;20053;-95
2023/06/22 08:02:58;;;;;;;;;;;;;;;;;;;;;
2023/06/22 08:06:01;;;;;;;7.32;4.88;;;23.10;99.90;;;;;;4874842;29;20143;-95
2023/06/22 08:08:56;;;;;;;8.05;5.55;;;23.20;99.90;;;;;;4841048;29;20137;-95
2023/06/22 08:11:37;;;;;;;8.60;6.25;;;23.30;99.90;;;;;;4822812;29;20503;-96
2023/06/22 08:17:40;;;;;;;8.25;5.82;;;23.30;99.90;;;;;;4834169;29;20054;-95
2023/06/22 08:20:44;;;;;;;7.95;4.57;;;23.50;99.90;;;;;;4880875;29;20058;-95
2023/06/22 08:32:53;;;;;;;12.55;4.55;;;24.00;99.90;;;;;;4892008;29;20087;-96
2023/06/22 08:38:53;;;;;;;6.88;3.47;;;24.30;99.90;;;;;;4869178;29;20083;-95
2023/06/22 08:41:32;;;;;;;6.78;4.68;;;24.40;99.90;;;;;;4823884;29;20394;-96
2023/06/22 08:44:18;;;;;;;8.02;4.05;;;24.50;99.90;;;;;;4884040;29;20048;-95
2023/06/22 08:46:52;;;;;;;9.68;4.10;;;24.40;99.90;;;;;;4883741;29;20040;-96
2023/06/22 08:49:29;;;;;;;7.50;4.72;;;24.50;99.90;;;;;;4882168;29;20066;-95
2023/06/22 08:52:17;;;;;;;;;;;24.60;99.90;;;;;;4879151;29;20060;-95
2023/06/22 08:55:36;;;;;;;7.47;4.68;;;24.60;99.90;;;;;;4854300;29;19953;-95
2023/06/22 09:01:52;;;;;;;7.43;4.45;;;24.80;99.90;;;;;;4843920;29;20088;-95
2023/06/22 09:04:55;;;;;;;9.20;4.40;;;24.80;99.90;;;;;;4859904;29;20060;-96
2023/06/22 09:07:38;;;;;;;9.35;4.63;;;24.90;99.90;;;;;;4864754;29;20063;-95
2023/06/22 09:10:58;;;;;;;7.10;4.57;;;24.90;99.90;;;;;;4852990;29;20124;-96
2023/06/22 09:13:32;;;;;;;8.32;4.60;;;25.00;99.90;;;;;;4892833;29;20056;-96
2023/06/22 09:16:24;;;;;;;10.27;5.25;;;25.00;99.90;;;;;;4892450;29;20102;-96
2023/06/22 09:20:14;;;;;;;10.07;4.95;;;24.90;99.90;;;;;;4858804;29;20055;-96
2023/06/22 09:22:57;;;;;;;10.75;5.80;;;24.80;99.90;;;;;;4862128;29;20057;-96
2023/06/22 09:25:56;;;;;;;8.00;4.90;;;24.90;99.90;;;;;;4880378;29;20056;-96
2023/06/22 09:28:55;;;;;;;9.80;5.68;;;24.90;99.90;;;;;;4887075;29;20055;-96
2023/06/22 09:39:11;;;;;;;10.23;6.13;;;25.20;99.90;;;;;;4867513;29;20049;-96
2023/06/22 09:42:26;;;;;;;9.77;5.93;;;25.30;99.90;;;;;;4860447;29;20052;-96
2023/06/22 09:44:46;;;;;;;9.55;6.03;;;25.40;99.90;;;;;;4798585;29;20156;-95
2023/06/22 09:47:20;;;;;;;10.73;6.22;;;25.60;99.90;;;;;;4850957;29;20056;-96
2023/06/22 09:50:31;;;;;;;8.98;5.63;;;25.60;99.90;;;;;;4863161;29;20063;-95
2023/06/22 09:53:30;;;;;;;10.15;6.50;;;25.80;99.90;;;;;;4848643;29;20067;-95
2023/06/22 09:56:16;;;;;;;11.73;6.57;;;25.80;99.90;;;;;;4876500;29;20053;-96
2023/06/22 09:59:17;;;;;;;12.98;7.03;;;25.90;99.90;;;;;;4863290;29;20069;-96
2023/06/22 10:02:27;;;;;;;;;;;;;;;;;;;;;
2023/06/22 10:05:28;;;;;;;;;;;;;;;;;;;;;
2023/06/22 10:08:42;;;;;;;10.90;6.32;;;26.30;99.90;;;;;;4896287;29;20047;-94
2023/06/22 10:11:19;;;;;;;11.13;6.88;;;26.50;99.90;;;;;;4869438;29;20053;-96
2023/06/22 10:14:21;;;;;;;10.02;6.68;;;26.60;99.90;;;;;;4894207;29;20123;-96
2023/06/22 10:20:00;;;;;;;9.32;5.85;;;26.50;99.90;;;;;;4876524;29;20049;-96
2023/06/22 10:22:38;;;;;;;7.13;5.20;;;26.70;99.90;;;;;;4865134;29;20097;-96
2023/06/22 10:27:58;;;;;;;10.20;6.05;;;26.90;99.90;;;;;;4895890;29;20048;-95
2023/06/22 10:30:38;;;;;;;8.85;5.88;;;27.10;99.90;;;;;;4866435;29;20048;-95
2023/06/22 10:33:17;;;;;;;9.05;5.85;;;26.80;99.90;;;;;;4865674;29;20052;-94
2023/06/22 10:37:05;;;;;;;;;;;;;;;;;;;;;
2023/06/22 10:43:27;;;;;;;13.13;5.55;;;26.30;99.90;;;;;;5367387;23;20077;-96
2023/06/22 10:46:31;;;;;;;8.43;5.40;;;26.30;99.90;;;;;;4896132;23;20077;-96
2023/06/22 11:53:06;;;;;;;11.55;4.90;;;27.00;99.90;;;;;;4896852;29;20045;-87
2023/06/22 12:24:51;;;;;;;9.02;6.00;;;26.80;99.90;;;;;;4877368;29;20453;-91
2023/06/22 12:28:30;;;;;;;;;;;;;;;;;;;;;
2023/06/22 12:32:35;;;;;;;;;;;;;;;;;;;;;
2023/06/22 12:36:23;;;;;;;11.13;5.90;;;26.60;99.90;;;;;;4852733;29;20067;-91
2023/06/22 12:40:03;;;;;;;11.98;6.30;;;26.50;99.90;;;;;;4840202;29;20576;-91
2023/06/22 12:47:27;;;;;;;;;;;;;;;;;;;;;
2023/06/22 13:15:55;;;;;;;10.27;5.55;;;25.70;99.90;;;;;;5072746;23;20481;-95
2023/06/22 13:19:05;;;;;;;8.73;5.10;;;25.60;99.90;;;;;;4851648;29;20139;-95
2023/06/22 13:21:37;;;;;;;14.48;4.35;;;25.60;99.90;;;;;;4844728;29;20387;-96
2023/06/22 13:24:27;;;;;;;10.80;4.32;;;25.60;99.90;;;;;;4851407;29;20167;-94
2023/06/22 13:27:16;;;;;;;9.25;3.75;;;25.60;99.90;;;;;;4852721;29;20104;-95
2023/06/22 13:29:57;;;;;;;7.22;3.70;;;25.60;99.90;;;;;;4862993;29;20060;-94
2023/06/22 13:32:41;;;;;;;8.07;4.00;;;25.60;99.90;;;;;;4863564;29;20045;-94
2023/06/22 13:35:53;;;;;;;8.40;3.65;;;25.50;99.90;;;;;;4881427;29;20432;-95
2023/06/22 13:38:28;;;;;;;12.85;3.55;;;25.40;99.90;;;;;;4849394;29;20069;-94
2023/06/22 13:41:26;;;;;;;9.65;3.70;;;25.30;99.90;;;;;;4849354;29;20056;-95
2023/06/22 13:43:57;;;;;;;11.02;3.42;;;25.30;99.90;;;;;;4859987;29;20207;-94
2023/06/22 13:46:29;;;;;;;13.27;3.40;;;25.20;99.90;;;;;;4865505;29;20169;-94
2023/06/22 13:49:23;;;;;;;7.45;3.00;;;25.40;99.90;;;;;;4878602;29;20055;-95
2023/06/22 13:52:21;;;;;;;8.90;3.15;;;25.20;99.90;;;;;;4864966;29;20158;-93
2023/06/22 13:55:16;;;;;;;5.60;2.90;;;25.20;99.90;;;;;;4853618;29;20048;-95
2023/06/22 13:58:07;;;;;;;5.97;3.00;;;25.00;99.90;;;;;;4860952;29;20049;-95
2023/06/22 14:01:11;;;;;;;10.38;3.40;;;24.90;99.90;;;;;;4867589;29;20505;-94
2023/06/22 14:03:49;;;;;;;9.15;3.22;;;24.80;99.90;;;;;;4861629;29;20372;-93
2023/06/22 14:06:38;;;;;;;7.72;3.50;;;24.80;99.90;;;;;;4881145;29;20048;-94
2023/06/22 14:09:19;;;;;;;5.50;3.00;;;24.80;99.90;;;;;;4862832;29;20044;-94
2023/06/22 14:12:18;;;;;;;5.13;2.72;;;24.60;99.90;;;;;;4860290;29;20506;-95
2023/06/22 14:14:49;;;;;;;4.90;2.40;;;24.50;99.90;;;;;;4840614;29;20041;-94
2023/06/22 14:17:27;;;;;;;5.65;2.60;;;24.40;99.90;;;;;;4864838;29;20087;-94
2023/06/22 14:20:34;;;;;;;6.28;2.40;;;24.40;99.90;;;;;;4861100;29;20053;-95
2023/06/22 14:23:41;;;;;;;10.95;2.58;;;24.30;99.90;;;;;;4856858;29;20056;-95
2023/06/22 14:27:24;;;;;;;9.07;2.60;;;24.20;99.90;;;;;;4878398;29;20053;-96
2023/06/22 14:30:29;;;;;;;7.22;3.00;;;24.10;99.90;;;;;;4870577;29;20044;-95
2023/06/22 14:33:37;;;;;;;6.80;2.22;;;24.10;99.90;;;;;;4824607;29;20051;-95
2023/06/22 14:36:32;;;;;;;8.38;2.47;;;24.00;99.90;;;;;;4850281;29;20128;-95
2023/06/22 14:40:37;;;;;;;5.32;2.22;;;24.10;99.90;;;;;;4817877;29;20077;-95
2023/06/22 14:43:09;;;;;;;5.55;2.03;;;24.10;99.90;;;;;;4808874;29;20060;-94
2023/06/22 14:46:29;;;;;;;7.88;1.85;;;23.90;99.90;;;;;;4796072;29;20070;-96
2023/06/22 14:49:24;;;;;;;3.65;1.80;;;23.90;99.90;;;;;;4801146;29;20489;-95
2023/06/22 14:52:36;;;;;;;4.40;1.80;;;23.80;99.90;;;;;;4807806;29;20061;-95
2023/06/22 14:55:46;;;;;;;5.97;1.50;;;23.70;99.90;;;;;;4818126;29;20141;-94
2023/06/22 14:58:46;;;;;;;6.78;1.40;;;23.70;99.90;;;;;;4818936;29;20148;-96
2023/06/22 15:05:01;;;;;;;5.80;1.75;;;23.60;99.90;;;;;;4873910;29;20045;-93
2023/06/22 15:07:27;;;;;;;2.83;1.23;;;23.50;99.90;;;;;;4855702;29;20468;-93
2023/06/22 15:09:53;;;;;;;5.13;1.30;;;23.50;99.90;;;;;;4856382;29;20063;-93
2023/06/22 15:12:18;;;;;;;4.10;1.27;;;23.50;99.90;;;;;;4856186;29;20037;-93
2023/06/22 15:14:44;;;;;;;8.55;1.40;;;23.50;99.90;;;;;;4845181;29;20071;-91
2023/06/22 15:17:10;;;;;;;4.68;1.58;;;23.50;99.90;;;;;;4857081;29;20112;-93
2023/06/22 15:19:38;;;;;;;2.83;1.00;;;23.40;99.90;;;;;;4856356;29;20144;-95
2023/06/22 15:22:05;;;;;;;4.80;1.02;;;23.40;99.90;;;;;;4852483;29;20135;-95
2023/06/22 15:24:34;;;;;;;2.70;1.15;;;23.30;99.90;;;;;;4868358;29;20055;-96
2023/06/22 15:27:03;;;;;;;2.63;1.10;;;23.30;99.90;;;;;;4868446;29;20097;-94
2023/06/22 15:29:33;;;;;;;4.20;1.45;;;23.10;99.90;;;;;;4865753;29;20048;-94
2023/06/22 15:31:59;;;;;;;4.05;1.00;;;23.00;99.90;;;;;;4867313;29;20036;-94
2023/06/22 15:34:25;;;;;;;4.43;0.93;;;23.00;99.90;;;;;;4865096;29;20100;-95
2023/06/22 15:36:51;;;;;;;4.30;1.23;;;22.90;99.90;;;;;;4859260;29;20048;-95
2023/06/22 15:39:17;;;;;;;4.72;1.20;;;22.90;99.90;;;;;;4863264;29;20056;-94
2023/06/22 15:41:43;;;;;;;3.00;1.08;;;22.80;99.90;;;;;;4859040;29;20055;-93
2023/06/22 15:44:09;;;;;;;2.20;0.93;;;22.70;99.90;;;;;;4861072;29;20631;-93
2023/06/22 15:46:35;;;;;;;4.97;1.08;;;22.70;99.90;;;;;;4855719;29;20143;-94
2023/06/22 15:49:01;;;;;;;5.13;0.85;;;22.70;99.90;;;;;;4852679;29;20453;-93
2023/06/22 15:51:28;;;;;;;4.65;0.95;;;22.70;99.90;;;;;;4859139;29;20053;-95
2023/06/22 15:54:00;;;;;;;3.55;1.33;;;22.70;99.90;;;;;;4862416;29;20187;-94
2023/06/22 15:56:36;;;;;;;5.75;1.27;;;22.60;99.90;;;;;;4892045;29;20056;-93
2023/06/22 15:59:04;;;;;;;3.33;1.35;;;22.60;99.90;;;;;;4859081;29;20041;-93
2023/06/22 16:01:31;;;;;;;5.38;1.58;;;22.60;99.90;;;;;;4859317;29;20147;-93
2023/06/22 16:03:57;;;;;;;7.25;2.15;;;22.60;99.90;;;;;;4867505;29;20048;-96
2023/06/22 16:06:23;;;;;;;5.97;3.53;;;22.60;99.90;;;;;;4866202;29;20053;-94
2023/06/22 16:08:48;;;;;;;9.57;5.20;;;22.50;99.90;;;;;;4864901;29;20045;-95
2023/06/22 16:11:14;;;;;;;7.57;2.90;;;22.50;99.90;;;;;;4868579;29;20056;-94
2023/06/22 16:13:40;;;;;;;13.00;7.38;;;22.40;99.90;;;;;;4870519;29;20059;-96
2023/06/22 16:16:06;;;;;;;8.95;3.80;;;22.50;99.90;;;;;;4852331;29;20064;-95
2023/06/22 16:18:32;;;;;;;5.35;1.50;;;22.50;99.90;;;;;;4876235;29;20128;-94
2023/06/22 16:20:58;;;;;;;8.55;1.67;;;22.50;99.90;;;;;;4863308;29;20149;-94
2023/06/22 16:23:24;;;;;;;4.00;1.10;;;22.50;99.90;;;;;;4867149;29;20048;-96
2023/06/22 16:25:50;;;;;;;4.60;1.13;;;22.50;99.90;;;;;;4863625;29;20497;-96
2023/06/22 16:28:15;;;;;;;6.20;1.02;;;22.50;99.90;;;;;;4866144;29;20044;-95
2023/06/22 16:30:41;;;;;;;6.15;1.30;;;22.40;99.90;;;;;;4862704;29;20052;-95
2023/06/22 16:33:07;;;;;;;4.85;1.20;;;22.40;99.90;;;;;;4866072;29;20085;-93
2023/06/22 16:35:33;;;;;;;2.88;1.00;;;22.30;99.90;;;;;;4863043;29;20055;-93
2023/06/22 16:37:59;;;;;;;5.70;1.08;;;22.20;99.90;;;;;;4874755;29;20044;-93
2023/06/22 16:40:27;;;;;;;4.63;0.95;;;22.10;99.90;;;;;;4865224;29;20048;-93
2023/06/22 16:43:11;;;;;;;5.55;1.08;;;22.10;99.90;;;;;;4881622;29;20044;-95
2023/06/22 16:45:37;;;;;;;4.85;1.10;;;22.00;99.90;;;;;;4864587;29;20057;-93
2023/06/22 16:48:03;;;;;;;10.00;1.27;;;21.90;99.90;;;;;;4859270;29;20540;-92
2023/06/22 16:50:29;;;;;;;4.97;1.40;;;21.90;99.90;;;;;;4857596;29;20498;-93
2023/06/22 16:52:55;;;;;;;2.92;1.38;;;21.80;99.90;;;;;;4862339;29;20120;-92
2023/06/22 16:55:23;;;;;;;4.88;1.23;;;21.80;99.90;;;;;;4864279;29;20064;-93
2023/06/22 16:57:51;;;;;;;4.55;1.30;;;21.70;99.90;;;;;;4862674;29;20045;-93
2023/06/22 17:00:17;;;;;;;7.05;1.73;;;21.60;99.90;;;;;;4857534;29;20053;-95
2023/06/22 17:02:47;;;;;;;5.10;1.77;;;21.60;99.90;;;;;;4865545;29;20052;-94
2023/06/22 17:05:14;;;;;;;3.75;1.58;;;21.60;99.90;;;;;;4864787;29;20127;-94
2023/06/22 17:07:48;;;;;;;5.95;1.70;;;21.40;99.90;;;;;;4859356;29;20449;-94
2023/06/22 17:10:14;;;;;;;4.85;1.52;;;21.40;99.90;;;;;;4865749;29;20044;-94
2023/06/22 17:12:40;;;;;;;8.00;2.20;;;21.40;99.90;;;;;;4856887;29;20052;-95
2023/06/22 17:15:09;;;;;;;5.18;1.92;;;21.30;99.90;;;;;;4856427;29;20053;-94
2023/06/22 17:17:39;;;;;;;4.22;2.00;;;21.30;99.90;;;;;;4858541;29;20143;-96
2023/06/22 17:20:07;;;;;;;5.60;2.30;;;21.30;99.90;;;;;;4861773;29;20090;-95
2023/06/22 17:22:35;;;;;;;8.02;2.25;;;21.20;99.90;;;;;;4860139;29;20135;-95
2023/06/22 17:25:02;;;;;;;7.55;2.38;;;21.20;99.90;;;;;;4850037;29;20052;-95
2023/06/22 17:27:29;;;;;;;9.00;2.50;;;21.10;99.90;;;;;;4865559;29;20044;-93
2023/06/22 17:30:09;;;;;;;7.38;2.45;;;21.10;99.90;;;;;;4855336;29;20080;-93
2023/06/22 17:32:35;;;;;;;7.05;2.47;;;21.10;99.90;;;;;;4861790;29;20049;-94
2023/06/22 17:35:03;;;;;;;6.47;2.40;;;21.10;99.90;;;;;;4864462;29;20048;-96
2023/06/22 17:37:52;;;;;;;7.25;3.10;;;21.10;99.90;;;;;;4867902;29;20056;-94
2023/06/22 17:40:21;;;;;;;7.45;2.70;;;21.10;99.90;;;;;;4860630;29;20048;-92
2023/06/22 17:43:05;;;;;;;5.45;2.97;;;21.00;99.90;;;;;;4861548;29;20135;-94
2023/06/22 17:45:41;;;;;;;7.15;2.88;;;21.00;99.90;;;;;;4864380;29;20076;-94
2023/06/22 17:48:08;;;;;;;6.18;2.72;;;20.90;99.90;;;;;;4871319;29;20576;-95
2023/06/22 17:50:44;;;;;;;6.55;2.60;;;20.90;99.90;;;;;;4854253;29;20486;-95
2023/06/22 17:53:17;;;;;;;6.45;2.67;;;20.90;99.90;;;;;;4866985;29;20614;-96
2023/06/22 17:55:43;;;;;;;9.82;2.95;;;20.80;99.90;;;;;;4860870;29;20177;-96
2023/06/22 17:58:09;;;;;;;5.72;2.83;;;20.80;99.90;;;;;;4861471;29;20128;-94
2023/06/22 18:00:47;;;;;;;7.57;2.92;;;20.80;99.90;;;;;;4851545;29;20057;-96
2023/06/22 18:03:14;;;;;;;6.68;2.60;;;20.70;99.90;;;;;;4856767;29;20060;-96
2023/06/22 18:05:46;;;;;;;5.60;2.60;;;20.70;99.90;;;;;;4859345;29;20525;-96
2023/06/22 18:08:15;;;;;;;7.15;2.80;;;20.60;99.90;;;;;;4847825;29;20044;-96
2023/06/22 18:10:43;;;;;;;6.35;2.38;;;20.60;99.90;;;;;;4848693;29;20032;-96
2023/06/22 18:13:14;;;;;;;9.52;1.92;;;20.50;99.90;;;;;;4865021;29;20108;-96
2023/06/22 18:15:45;;;;;;;7.72;2.13;;;20.40;99.90;;;;;;4846505;29;20489;-96
2023/06/22 18:18:15;;;;;;;4.75;1.95;;;20.40;99.90;;;;;;4862228;29;20068;-96
2023/06/22 18:20:51;;;;;;;4.22;2.00;;;20.30;99.90;;;;;;4865792;29;20048;-96
2023/06/22 18:23:51;;;;;;;4.55;2.55;;;20.30;99.90;;;;;;4867385;29;20079;-96
2023/06/22 18:26:35;;;;;;;;;;;;;;;;;;;;;
2023/06/22 19:16:28;;;;;;;7.75;3.17;;;19.60;99.90;;;;;;1547553;23;21756;-95
2023/06/22 19:18:55;;;;;;;7.53;3.30;;;19.90;99.90;;;;;;4855813;29;20076;-95
2023/06/22 19:21:24;;;;;;;5.32;2.70;;;19.50;99.90;;;;;;4857327;29;20052;-95
2023/06/22 19:23:51;;;;;;;6.63;2.80;;;19.50;99.90;;;;;;4842118;29;20503;-96
2023/06/22 19:26:18;;;;;;;7.95;2.92;;;19.50;99.90;;;;;;4856702;29;20052;-95
2023/06/22 19:28:45;;;;;;;5.80;2.92;;;19.40;99.90;;;;;;4843371;29;20132;-96
2023/06/22 19:31:15;;;;;;;6.10;2.40;;;19.40;99.90;;;;;;4843467;29;20060;-96
2023/06/22 19:36:33;;;;;;;7.03;3.10;;;19.30;99.90;;;;;;5262466;23;20061;-94
2023/06/22 19:38:59;;;;;;;7.53;3.00;;;19.30;99.90;;;;;;4852806;29;20072;-96
2023/06/22 19:41:41;;;;;;;6.60;3.35;;;19.30;99.90;;;;;;4841368;29;20490;-96
2023/06/22 19:44:09;;;;;;;7.10;3.10;;;19.30;99.90;;;;;;4847748;29;20045;-96
2023/06/22 19:46:51;;;;;;;6.47;3.38;;;19.30;99.90;;;;;;4842525;29;20069;-95
2023/06/22 19:54:21;;;;;;;8.30;3.22;;;19.20;99.90;;;;;;4889401;29;20057;-94
2023/06/22 20:03:02;;;;;;;9.68;3.22;;;19.10;99.90;;;;;;4886938;29;20064;-93
2023/06/22 20:08:03;;;;;;;6.18;2.80;;;19.10;99.90;;;;;;5150380;23;20056;-94
2023/06/22 20:10:41;;;;;;;6.05;2.90;;;19.10;99.90;;;;;;4858881;29;20088;-96
2023/06/22 20:13:20;;;;;;;7.45;3.00;;;19.10;99.90;;;;;;4860542;29;20049;-96
2023/06/22 20:16:31;;;;;;;8.45;3.20;;;19.40;99.90;;;;;;4862603;29;20112;-96
2023/06/22 20:23:12;;;;;;;;;;;;;;;;;;;;;
2023/06/22 20:25:40;;;;;;;7.10;3.03;;;19.00;99.90;;;;;;4881540;29;20062;-95
2023/06/22 20:28:13;;;;;;;7.13;3.05;;;18.90;99.90;;;;;;4867478;29;20077;-95
2023/06/22 20:31:04;;;;;;;5.45;3.17;;;18.90;99.90;;;;;;4859948;29;20052;-96
2023/06/22 20:33:37;;;;;;;7.32;2.90;;;18.80;99.90;;;;;;4858715;29;20033;-97